Time;durP1;ratioP1;P1;durP2;ratioP2;P2;SDS_P1;SDS_P2;PMS_P1;PMS_P2;Temp;Humidity;BMP_temperature;BMP_pressure;BME280_temperature;BME280_humidity;BME280_pressure;Samples;Min_cycle;Max_cycle;Signal;HPM_P1;HPM_P2
2020/12/05 00:01:13;;;;;;;22.40;14.33;;;2.80;99.90;;;;;;5016086;28;20445;-91
2020/12/05 00:03:39;;;;;;;21.30;14.10;;;2.70;99.90;;;;;;5014934;28;20489;-94
2020/12/05 00:06:06;;;;;;;19.80;14.47;;;2.70;99.90;;;;;;5015188;28;20445;-95
2020/12/05 00:08:33;;;;;;;22.90;14.53;;;2.80;99.90;;;;;;5016093;28;21010;-94
2020/12/05 00:11:05;;;;;;;22.40;13.97;;;2.80;99.90;;;;;;5015539;28;20485;-91
2020/12/05 00:13:31;;;;;;;17.77;13.07;;;2.90;99.90;;;;;;5015311;28;20448;-91
2020/12/05 00:15:58;;;;;;;20.67;13.30;;;2.80;99.90;;;;;;5019754;28;20464;-92
2020/12/05 00:18:24;;;;;;;21.63;14.03;;;2.90;99.90;;;;;;5027376;28;20451;-92
2020/12/05 00:20:51;;;;;;;23.20;14.53;;;2.80;99.90;;;;;;5016782;28;20480;-93
2020/12/05 00:23:17;;;;;;;20.50;13.93;;;;;;;;;;5015812;28;20450;-94
2020/12/05 00:25:43;;;;;;;22.77;14.40;;;2.90;99.90;;;;;;5015418;28;20941;-94
2020/12/05 00:28:10;;;;;;;21.10;15.40;;;2.90;99.90;;;;;;5013326;28;20460;-94
2020/12/05 00:30:36;;;;;;;20.00;13.90;;;2.90;99.90;;;;;;5016446;28;20495;-93
2020/12/05 00:33:04;;;;;;;24.47;15.67;;;2.80;99.90;;;;;;5014539;28;20792;-91
2020/12/05 00:35:30;;;;;;;21.63;15.87;;;2.80;99.90;;;;;;5014216;28;20445;-91
2020/12/05 00:37:57;;;;;;;21.80;16.23;;;2.80;99.90;;;;;;5017293;28;20526;-95
2020/12/05 00:40:23;;;;;;;23.27;15.80;;;2.90;99.90;;;;;;5018969;28;20446;-92
2020/12/05 00:42:49;;;;;;;20.87;14.80;;;2.90;99.90;;;;;;5016200;28;20445;-92
2020/12/05 00:45:16;;;;;;;19.70;13.80;;;2.90;99.90;;;;;;5018953;28;20446;-94
2020/12/05 00:47:43;;;;;;;23.03;15.93;;;2.80;99.90;;;;;;5018484;28;20445;-96
2020/12/05 00:50:10;;;;;;;22.20;15.37;;;2.70;99.90;;;;;;5014503;28;20480;-94
2020/12/05 00:52:37;;;;;;;24.50;13.93;;;2.70;99.90;;;;;;5022893;28;20449;-92
2020/12/05 00:55:03;;;;;;;27.37;15.73;;;2.60;99.90;;;;;;5023960;28;20461;-95
2020/12/05 00:57:29;;;;;;;20.60;14.90;;;2.60;99.90;;;;;;5018263;28;20449;-93
2020/12/05 00:59:56;;;;;;;21.63;15.00;;;2.60;99.90;;;;;;5018003;28;20456;-91
2020/12/05 01:02:23;;;;;;;24.80;17.27;;;2.70;99.90;;;;;;5016695;28;20452;-90
2020/12/05 01:04:50;;;;;;;22.73;14.70;;;2.80;99.90;;;;;;5017768;28;20454;-95
2020/12/05 01:07:21;;;;;;;22.77;14.70;;;2.80;99.90;;;;;;5018969;28;20488;-93
2020/12/05 01:09:47;;;;;;;24.43;15.50;;;2.80;99.90;;;;;;5017922;28;20846;-92
2020/12/05 01:12:14;;;;;;;25.90;16.93;;;2.70;99.90;;;;;;5017640;28;20451;-94
2020/12/05 01:14:40;;;;;;;20.27;15.57;;;2.70;99.90;;;;;;5018385;28;20436;-91
2020/12/05 01:17:06;;;;;;;21.13;14.07;;;2.70;99.90;;;;;;5017805;28;20444;-93
2020/12/05 01:19:33;;;;;;;25.47;16.23;;;2.70;99.90;;;;;;5015714;28;20437;-93
2020/12/05 01:21:59;;;;;;;20.27;15.40;;;2.70;99.90;;;;;;5017749;28;20465;-94
2020/12/05 01:24:26;;;;;;;23.93;14.87;;;2.70;99.90;;;;;;5017506;28;20455;-94
2020/12/05 01:26:52;;;;;;;24.73;15.50;;;2.70;99.90;;;;;;5018057;28;20444;-92
2020/12/05 01:29:19;;;;;;;21.23;14.80;;;2.70;99.90;;;;;;5017449;28;20437;-92
2020/12/05 01:31:47;;;;;;;14.30;11.50;;;2.90;99.90;;;;;;5017801;28;20486;-92
2020/12/05 01:34:14;;;;;;;22.50;14.60;;;2.80;99.90;;;;;;4982845;28;20474;-92
2020/12/05 01:36:43;;;;;;;22.03;15.50;;;2.90;99.90;;;;;;5017691;28;20450;-94
2020/12/05 01:39:10;;;;;;;22.87;15.53;;;2.80;99.90;;;;;;5016956;28;20529;-93
2020/12/05 01:41:37;;;;;;;23.40;16.63;;;2.80;99.90;;;;;;5017794;28;20460;-92
2020/12/05 01:44:04;;;;;;;24.40;17.57;;;2.80;99.90;;;;;;5017849;28;20436;-91
2020/12/05 01:46:34;;;;;;;23.00;17.20;;;2.80;99.90;;;;;;5022025;28;20457;-91
2020/12/05 01:49:01;;;;;;;28.10;17.70;;;2.70;99.90;;;;;;5023118;28;20468;-92
2020/12/05 01:51:27;;;;;;;21.03;16.27;;;2.70;99.90;;;;;;5016862;28;20494;-90
2020/12/05 01:53:56;;;;;;;24.27;16.33;;;2.70;99.90;;;;;;5016993;28;20859;-93
2020/12/05 01:56:24;;;;;;;19.77;15.37;;;2.60;99.90;;;;;;5016676;28;20442;-90
2020/12/05 01:58:52;;;;;;;19.37;14.67;;;2.60;99.90;;;;;;5017077;28;20453;-90
2020/12/05 02:01:21;;;;;;;18.63;14.30;;;2.50;99.90;;;;;;5016989;28;20810;-90
2020/12/05 02:03:51;;;;;;;18.97;13.53;;;2.50;99.90;;;;;;5016921;28;20448;-91
2020/12/05 02:06:28;;;;;;;16.70;13.43;;;2.40;99.90;;;;;;5016334;28;20868;-90
2020/12/05 02:09:00;;;;;;;20.87;14.07;;;2.40;99.90;;;;;;5016600;28;20477;-90
2020/12/05 02:11:32;;;;;;;19.77;15.00;;;2.40;99.90;;;;;;5016374;28;20497;-92
2020/12/05 02:14:05;;;;;;;18.50;13.20;;;2.20;99.90;;;;;;5016428;28;20441;-89
2020/12/05 02:16:32;;;;;;;15.10;11.73;;;2.30;99.90;;;;;;5016402;28;20438;-91
2020/12/05 02:19:00;;;;;;;17.67;13.83;;;2.20;99.90;;;;;;5015388;28;20447;-90
2020/12/05 02:21:29;;;;;;;17.20;12.13;;;2.20;99.90;;;;;;5017064;28;20483;-90
2020/12/05 02:23:57;;;;;;;14.60;11.80;;;2.10;99.90;;;;;;5013249;28;20449;-90
2020/12/05 02:26:24;;;;;;;15.13;11.87;;;2.00;99.90;;;;;;5016347;28;20452;-90
2020/12/05 02:28:50;;;;;;;16.47;11.43;;;1.90;99.90;;;;;;5016231;28;20448;-91
2020/12/05 02:31:17;;;;;;;12.33;10.43;;;2.00;99.90;;;;;;5016068;28;20528;-90
2020/12/05 02:33:43;;;;;;;16.70;12.03;;;1.90;99.90;;;;;;5015140;28;20449;-89
2020/12/05 02:36:11;;;;;;;14.47;10.33;;;2.00;99.90;;;;;;5015885;28;20858;-88
2020/12/05 02:38:46;;;;;;;11.80;10.20;;;2.00;99.90;;;;;;5017500;28;20465;-91
2020/12/05 02:41:14;;;;;;;14.83;9.70;;;1.90;99.90;;;;;;5015915;28;20459;-90
2020/12/05 02:43:40;;;;;;;15.83;11.13;;;1.90;99.90;;;;;;5016103;28;20449;-90
2020/12/05 02:46:07;;;;;;;15.00;11.13;;;1.90;99.90;;;;;;5014585;28;20458;-91
2020/12/05 02:48:33;;;;;;;18.13;11.03;;;1.80;99.90;;;;;;5015394;28;20500;-90
2020/12/05 02:50:59;;;;;;;14.97;10.93;;;1.90;99.90;;;;;;5014731;28;20845;-90
2020/12/05 02:53:26;;;;;;;12.57;10.20;;;1.80;99.90;;;;;;5015278;28;20512;-92
2020/12/05 02:55:52;;;;;;;14.90;10.40;;;1.80;99.90;;;;;;5016543;28;20457;-90
2020/12/05 02:58:19;;;;;;;12.50;10.30;;;1.80;99.90;;;;;;5015618;28;20452;-91
2020/12/05 03:00:45;;;;;;;9.77;7.00;;;1.80;99.90;;;;;;5015116;28;20448;-89
2020/12/05 03:03:12;;;;;;;10.70;8.80;;;1.80;99.90;;;;;;5015111;28;20486;-90
2020/12/05 03:05:41;;;;;;;11.60;7.57;;;1.70;99.90;;;;;;5014447;28;20447;-90
2020/12/05 03:08:07;;;;;;;8.17;6.67;;;1.70;99.90;;;;;;5015140;28;20484;-91
2020/12/05 03:10:34;;;;;;;10.83;7.90;;;1.70;99.90;;;;;;5015256;28;20470;-90
2020/12/05 03:13:00;;;;;;;13.43;10.17;;;1.70;99.90;;;;;;5015706;28;20455;-91
2020/12/05 03:15:27;;;;;;;10.50;7.80;;;1.60;99.90;;;;;;5015500;28;20459;-91
2020/12/05 03:17:53;;;;;;;11.77;9.07;;;1.60;99.90;;;;;;5025324;28;20456;-92
2020/12/05 03:20:21;;;;;;;11.33;8.53;;;1.60;99.90;;;;;;5016345;28;21002;-91
2020/12/05 03:22:47;;;;;;;11.80;8.27;;;1.60;99.90;;;;;;5015285;28;20447;-92
2020/12/05 03:25:13;;;;;;;12.10;8.13;;;1.60;99.90;;;;;;5014751;28;20797;-92
2020/12/05 03:27:40;;;;;;;11.70;8.57;;;1.60;99.90;;;;;;5015118;28;20439;-92
2020/12/05 03:30:06;;;;;;;11.50;7.83;;;1.70;99.90;;;;;;5016110;28;20483;-92
2020/12/05 03:32:33;;;;;;;8.13;7.27;;;1.60;99.90;;;;;;5015816;28;20432;-91
2020/12/05 03:34:59;;;;;;;12.30;8.30;;;1.70;99.90;;;;;;5015120;28;20463;-92
2020/12/05 03:37:26;;;;;;;9.90;7.70;;;1.70;99.90;;;;;;5013608;28;20446;-93
2020/12/05 03:39:53;;;;;;;13.87;8.47;;;1.70;99.90;;;;;;5014925;28;20974;-91
2020/12/05 03:42:19;;;;;;;12.00;7.63;;;1.70;99.90;;;;;;5013572;28;20935;-91
2020/12/05 03:44:46;;;;;;;10.50;8.57;;;1.70;99.90;;;;;;5015872;28;20473;-92
2020/12/05 03:47:12;;;;;;;10.00;7.93;;;1.80;99.90;;;;;;5014745;28;20474;-91
2020/12/05 03:49:39;;;;;;;10.20;6.80;;;1.80;99.90;;;;;;5014770;28;20463;-91
2020/12/05 03:52:06;;;;;;;11.83;7.70;;;1.80;99.90;;;;;;5011731;28;20553;-90
2020/12/05 03:54:33;;;;;;;8.90;6.73;;;1.80;99.90;;;;;;5014539;28;20450;-90
2020/12/05 03:56:59;;;;;;;11.13;7.77;;;1.80;99.90;;;;;;5014681;28;20446;-90
2020/12/05 03:59:25;;;;;;;12.23;7.97;;;1.70;99.90;;;;;;5012904;28;20992;-91
2020/12/05 04:01:52;;;;;;;11.10;6.87;;;1.70;99.90;;;;;;5014198;28;20984;-91
2020/12/05 04:04:18;;;;;;;10.00;8.00;;;1.80;99.90;;;;;;5009244;28;20458;-91
2020/12/05 04:06:45;;;;;;;13.30;7.83;;;1.70;99.90;;;;;;5014142;28;20568;-91
2020/12/05 04:09:12;;;;;;;9.83;6.50;;;1.80;99.90;;;;;;5014311;28;20448;-90
2020/12/05 04:11:40;;;;;;;11.67;8.73;;;1.70;99.90;;;;;;5013258;28;20497;-92
2020/12/05 04:14:06;;;;;;;9.37;7.07;;;1.70;99.90;;;;;;5014326;28;21035;-90
2020/12/05 04:16:33;;;;;;;10.43;7.50;;;1.70;99.90;;;;;;5015380;28;20463;-89
2020/12/05 04:19:00;;;;;;;13.83;9.37;;;1.80;99.90;;;;;;5013451;28;20455;-91
2020/12/05 04:21:26;;;;;;;10.43;6.50;;;1.80;99.90;;;;;;5014355;28;20448;-92
2020/12/05 04:23:54;;;;;;;11.00;7.80;;;1.70;99.90;;;;;;5014216;28;20462;-92
2020/12/05 04:26:20;;;;;;;11.60;7.97;;;1.70;99.90;;;;;;5014264;28;20484;-91
2020/12/05 04:28:47;;;;;;;13.03;8.97;;;1.70;99.90;;;;;;5014159;28;20444;-90
2020/12/05 04:31:13;;;;;;;11.87;8.27;;;1.70;99.90;;;;;;5013815;28;20492;-91
2020/12/05 04:33:40;;;;;;;12.67;8.97;;;1.70;99.90;;;;;;5014015;28;20444;-93
2020/12/05 04:36:06;;;;;;;13.57;10.00;;;1.70;99.90;;;;;;5015051;28;20456;-91
2020/12/05 04:38:32;;;;;;;11.23;9.03;;;1.70;99.90;;;;;;5014276;28;20452;-91
2020/12/05 04:41:00;;;;;;;12.33;8.67;;;1.70;99.90;;;;;;5012811;28;20456;-91
2020/12/05 04:43:27;;;;;;;10.07;7.60;;;1.80;99.90;;;;;;5014573;28;20437;-91
2020/12/05 04:45:54;;;;;;;12.00;9.33;;;1.80;99.90;;;;;;5016308;28;20444;-90
2020/12/05 04:48:21;;;;;;;12.77;9.13;;;1.80;99.90;;;;;;5023267;28;20447;-90
2020/12/05 04:50:48;;;;;;;9.80;8.13;;;1.70;99.90;;;;;;5014141;28;20487;-93
2020/12/05 04:53:19;;;;;;;11.73;8.40;;;1.70;99.90;;;;;;5013992;28;20452;-91
2020/12/05 04:55:46;;;;;;;13.07;8.40;;;1.70;99.90;;;;;;5012240;28;20451;-90
2020/12/05 04:58:18;;;;;;;10.93;8.37;;;1.70;99.90;;;;;;5013942;28;20452;-92
2020/12/05 05:00:45;;;;;;;9.40;7.00;;;1.70;99.90;;;;;;5014023;28;20441;-91
2020/12/05 05:03:15;;;;;;;11.23;8.67;;;1.60;99.90;;;;;;5014083;28;20463;-91
2020/12/05 05:05:41;;;;;;;9.93;5.77;;;1.60;99.90;;;;;;5013793;28;20455;-90
2020/12/05 05:08:15;;;;;;;11.27;8.27;;;1.70;99.90;;;;;;5013389;28;20545;-91
2020/12/05 05:10:44;;;;;;;11.07;8.57;;;1.70;99.90;;;;;;5013406;28;20541;-91
2020/12/05 05:13:17;;;;;;;7.80;5.73;;;1.60;99.90;;;;;;5014404;28;20446;-90
2020/12/05 05:15:45;;;;;;;8.70;6.20;;;1.70;99.90;;;;;;5013678;28;20443;-91
2020/12/05 05:18:13;;;;;;;8.23;5.57;;;1.70;99.90;;;;;;5013679;28;20966;-90
2020/12/05 05:20:42;;;;;;;9.73;8.20;;;1.70;99.90;;;;;;5012302;28;20459;-91
2020/12/05 05:23:14;;;;;;;13.07;8.33;;;1.70;99.90;;;;;;5016572;28;20544;-91
2020/12/05 05:25:52;;;;;;;16.30;9.30;;;1.70;99.90;;;;;;5016894;28;20450;-91
2020/12/05 05:28:20;;;;;;;13.17;9.40;;;1.70;99.90;;;;;;5017387;28;20435;-89
2020/12/05 05:31:08;;;;;;;10.53;8.60;;;1.80;99.90;;;;;;5030298;28;20573;-89
2020/12/05 05:33:39;;;;;;;7.27;5.10;;;1.50;99.90;;;;;;5018464;28;20451;-89
2020/12/05 05:36:19;;;;;;;10.70;7.47;;;1.80;99.90;;;;;;5014617;28;20443;-89
2020/12/05 05:38:56;;;;;;;12.03;7.37;;;1.80;99.90;;;;;;4997522;28;20442;-90
2020/12/05 05:41:23;;;;;;;9.83;6.40;;;1.70;99.90;;;;;;4997238;28;20836;-91
2020/12/05 05:44:00;;;;;;;7.47;4.67;;;1.70;99.90;;;;;;4997154;28;20451;-91
2020/12/05 05:46:29;;;;;;;6.10;4.73;;;1.70;99.90;;;;;;4997425;28;20439;-89
2020/12/05 05:48:57;;;;;;;10.03;5.80;;;1.80;99.90;;;;;;4996476;28;20827;-89
2020/12/05 05:51:45;;;;;;;5.27;4.17;;;1.80;99.90;;;;;;4996501;28;20495;-89
2020/12/05 05:54:20;;;;;;;9.70;6.10;;;2.10;99.90;;;;;;4996798;28;20501;-91
2020/12/05 05:57:01;;;;;;;10.40;8.07;;;1.80;99.90;;;;;;4997103;28;20469;-91
2020/12/05 05:59:29;;;;;;;15.27;7.60;;;1.80;99.90;;;;;;4997098;28;20451;-91
2020/12/05 06:01:57;;;;;;;11.10;6.60;;;1.80;99.90;;;;;;4997070;28;20514;-91
2020/12/05 06:04:34;;;;;;;9.47;7.37;;;1.70;99.90;;;;;;4997460;28;20456;-92
2020/12/05 06:07:02;;;;;;;12.50;7.90;;;1.70;99.90;;;;;;4994259;28;20491;-92
2020/12/05 06:09:36;;;;;;;7.83;6.13;;;1.70;99.90;;;;;;4997228;28;20449;-91
2020/12/05 06:12:04;;;;;;;7.07;4.17;;;1.70;99.90;;;;;;4996945;28;20496;-91
2020/12/05 06:14:34;;;;;;;9.83;6.27;;;1.70;99.90;;;;;;4997263;28;20453;-91
2020/12/05 06:17:06;;;;;;;8.17;6.10;;;1.70;99.90;;;;;;5002732;28;20451;-90
2020/12/05 06:19:33;;;;;;;8.80;5.00;;;1.70;99.90;;;;;;4998678;28;20477;-91
2020/12/05 06:22:00;;;;;;;6.80;5.47;;;2.10;99.90;;;;;;4996737;28;20463;-91
2020/12/05 06:24:38;;;;;;;8.27;5.10;;;1.70;99.90;;;;;;4996615;28;20466;-92
2020/12/05 06:27:07;;;;;;;7.37;5.03;;;1.70;99.90;;;;;;4996299;28;20546;-90
2020/12/05 06:29:37;;;;;;;5.90;4.83;;;1.70;99.90;;;;;;4996772;28;20461;-91
2020/12/05 06:32:04;;;;;;;8.03;4.40;;;1.70;99.90;;;;;;4996190;28;20553;-90
2020/12/05 06:34:40;;;;;;;9.73;4.63;;;1.70;99.90;;;;;;4994467;28;20463;-91
2020/12/05 06:37:08;;;;;;;2.53;1.90;;;1.80;99.90;;;;;;4996622;28;20802;-90
2020/12/05 06:39:34;;;;;;;4.60;3.53;;;1.70;99.90;;;;;;5004242;28;20480;-90
2020/12/05 06:42:01;;;;;;;3.43;2.77;;;1.70;99.90;;;;;;5015449;28;20454;-89
2020/12/05 06:44:37;;;;;;;7.50;4.33;;;1.70;99.90;;;;;;5015793;28;20448;-90
2020/12/05 06:47:07;;;;;;;4.80;3.57;;;2.30;99.90;;;;;;5017149;28;20931;-90
2020/12/05 06:49:46;;;;;;;4.53;3.90;;;1.70;99.90;;;;;;5015928;28;20549;-91
2020/12/05 06:52:31;;;;;;;4.87;2.90;;;1.70;99.90;;;;;;5016052;28;20856;-92
2020/12/05 06:55:00;;;;;;;4.63;3.47;;;1.60;99.90;;;;;;5015662;28;20461;-91
2020/12/05 06:57:27;;;;;;;3.33;2.60;;;1.50;99.90;;;;;;5016951;28;20440;-92
2020/12/05 07:00:21;;;;;;;5.20;4.10;;;1.70;99.90;;;;;;5018101;28;20466;-92
2020/12/05 07:03:00;;;;;;;7.23;4.10;;;1.60;99.90;;;;;;5015993;28;20441;-90
2020/12/05 07:05:36;;;;;;;5.43;4.10;;;1.60;99.90;;;;;;5014636;28;20540;-91
2020/12/05 07:08:20;;;;;;;5.37;4.30;;;1.80;99.90;;;;;;5016218;28;21004;-92
2020/12/05 07:10:56;;;;;;;11.40;4.80;;;1.70;99.90;;;;;;5015124;28;20494;-90
2020/12/05 07:13:25;;;;;;;8.30;5.23;;;1.70;99.90;;;;;;5017434;28;20493;-90
2020/12/05 07:15:52;;;;;;;7.00;5.47;;;1.70;99.90;;;;;;5015264;28;20468;-91
2020/12/05 07:18:27;;;;;;;11.63;5.60;;;1.60;99.90;;;;;;5015510;28;20818;-93
2020/12/05 07:20:55;;;;;;;7.70;5.87;;;2.30;99.90;;;;;;5015104;28;20447;-92
2020/12/05 07:23:21;;;;;;;6.60;5.37;;;1.70;99.90;;;;;;5020504;28;20466;-91
2020/12/05 07:25:48;;;;;;;7.97;5.40;;;1.70;99.90;;;;;;5016960;28;21027;-90
2020/12/05 07:28:14;;;;;;;5.53;4.50;;;1.70;99.90;;;;;;5015047;28;20453;-89
2020/12/05 07:30:40;;;;;;;7.77;5.23;;;1.70;99.90;;;;;;5014433;28;20489;-88
2020/12/05 07:33:08;;;;;;;8.60;5.77;;;1.60;99.90;;;;;;5015400;28;20523;-89
2020/12/05 07:35:39;;;;;;;12.83;5.97;;;1.60;99.90;;;;;;5015399;28;20507;-90
2020/12/05 07:38:13;;;;;;;9.87;7.57;;;1.60;99.90;;;;;;5009496;28;20532;-92
2020/12/05 07:40:39;;;;;;;8.50;5.17;;;1.60;99.90;;;;;;5013810;28;20452;-90
2020/12/05 07:43:16;;;;;;;5.50;4.83;;;1.60;99.90;;;;;;5010656;28;20456;-88
2020/12/05 07:45:42;;;;;;;5.67;4.43;;;1.50;99.90;;;;;;5017411;28;20779;-87
2020/12/05 07:48:13;;;;;;;4.93;3.70;;;1.50;99.90;;;;;;5024072;28;20448;-86
2020/12/05 07:50:41;;;;;;;5.50;4.63;;;1.50;99.90;;;;;;5015135;28;20995;-90
2020/12/05 07:53:25;;;;;;;12.97;5.20;;;1.50;99.90;;;;;;5013980;28;20436;-88
2020/12/05 07:55:52;;;;;;;38.20;16.97;;;1.50;99.90;;;;;;5006948;28;20805;-86
2020/12/05 07:58:18;;;;;;;35.00;15.13;;;1.50;99.90;;;;;;5013552;28;20952;-88
2020/12/05 08:00:44;;;;;;;19.73;9.57;;;1.60;99.90;;;;;;5014285;28;20448;-88
2020/12/05 08:03:41;;;;;;;12.07;6.90;;;1.70;99.90;;;;;;5024012;28;20468;-89
2020/12/05 08:06:15;;;;;;;12.00;6.83;;;1.80;99.90;;;;;;5015227;28;20455;-88
2020/12/05 08:08:48;;;;;;;1.40;1.30;;;1.90;99.90;;;;;;5014294;28;20547;-89
2020/12/05 08:11:14;;;;;;;3.20;2.53;;;2.00;99.90;;;;;;5014233;28;20478;-92
2020/12/05 08:13:41;;;;;;;3.97;3.47;;;2.10;99.90;;;;;;5013741;28;20479;-88
2020/12/05 08:16:08;;;;;;;7.23;6.00;;;2.20;99.90;;;;;;5015487;28;20453;-88
2020/12/05 08:18:35;;;;;;;6.40;5.80;;;2.20;99.90;;;;;;5013612;28;20454;-87
2020/12/05 08:21:04;;;;;;;2.20;1.80;;;2.30;99.90;;;;;;5012643;28;20456;-89
2020/12/05 08:23:32;;;;;;;9.60;6.40;;;2.40;99.90;;;;;;5013525;28;20459;-90
2020/12/05 08:26:01;;;;;;;49.93;26.10;;;2.40;99.90;;;;;;5014139;28;20448;-87
2020/12/05 08:28:30;;;;;;;15.83;9.80;;;2.40;99.90;;;;;;5013674;28;20453;-89
2020/12/05 08:31:02;;;;;;;5.60;3.97;;;2.60;99.90;;;;;;5016135;28;20498;-91
2020/12/05 08:33:28;;;;;;;1.40;1.30;;;2.50;99.90;;;;;;5018466;28;20453;-93
2020/12/05 08:35:54;;;;;;;2.37;2.17;;;2.50;99.90;;;;;;5015875;28;20486;-96
2020/12/05 08:38:23;;;;;;;1.57;1.40;;;2.60;99.90;;;;;;4997252;28;20448;-90
2020/12/05 08:41:01;;;;;;;5.93;1.30;;;2.50;99.90;;;;;;5014418;28;20791;-92
2020/12/05 08:43:27;;;;;;;2.20;1.63;;;2.60;99.90;;;;;;5017448;28;20448;-92
2020/12/05 08:45:54;;;;;;;1.97;1.00;;;2.60;99.90;;;;;;5014636;28;20446;-91
2020/12/05 08:48:21;;;;;;;1.97;1.53;;;2.60;99.90;;;;;;5014741;28;20628;-90
2020/12/05 08:50:48;;;;;;;3.10;1.80;;;2.70;99.90;;;;;;5011129;28;20494;-91
2020/12/05 08:53:15;;;;;;;2.50;2.30;;;2.70;99.90;;;;;;5015118;28;20456;-91
2020/12/05 08:55:48;;;;;;;2.90;2.70;;;2.70;99.90;;;;;;5014793;28;20448;-94
2020/12/05 08:58:16;;;;;;;5.77;4.33;;;4.50;99.90;;;;;;5018454;28;20443;-93
2020/12/05 09:00:49;;;;;;;3.80;3.40;;;2.80;99.90;;;;;;5016324;28;20448;-96
2020/12/05 09:03:20;;;;;;;9.70;6.23;;;2.80;99.90;;;;;;5021652;28;20869;-93
2020/12/05 09:05:47;;;;;;;8.63;7.83;;;2.80;99.90;;;;;;5026663;28;20796;-94
2020/12/05 09:08:20;;;;;;;7.17;6.47;;;2.90;99.90;;;;;;5021486;28;20475;-92
2020/12/05 09:10:47;;;;;;;6.37;5.77;;;2.90;99.90;;;;;;5020594;28;20505;-94
2020/12/05 09:13:14;;;;;;;6.00;5.50;;;2.90;99.90;;;;;;5021048;28;20444;-95
2020/12/05 09:15:58;;;;;;;4.00;3.70;;;2.90;99.90;;;;;;5026647;28;20469;-91
2020/12/05 09:18:25;;;;;;;2.83;2.10;;;3.00;99.90;;;;;;5024035;28;20452;-91
2020/12/05 09:20:51;;;;;;;4.00;2.10;;;3.00;99.90;;;;;;5030845;28;20474;-90
2020/12/05 09:23:27;;;;;;;2.20;2.00;;;3.10;99.90;;;;;;5041063;23;20484;-92
2020/12/05 09:26:01;;;;;;;3.00;2.70;;;3.10;99.90;;;;;;5023684;28;20909;-92
2020/12/05 09:28:29;;;;;;;5.63;2.43;;;3.20;99.90;;;;;;5022621;28;20477;-94
2020/12/05 09:30:55;;;;;;;1.67;1.57;;;3.20;99.90;;;;;;5019516;28;20481;-92
2020/12/05 09:33:22;;;;;;;3.20;2.00;;;3.30;99.90;;;;;;5019537;28;20504;-92
2020/12/05 09:35:49;;;;;;;3.80;2.00;;;3.40;99.90;;;;;;5019110;28;20957;-93
2020/12/05 09:38:15;;;;;;;2.50;1.87;;;3.50;99.90;;;;;;5018493;28;20502;-94
2020/12/05 09:40:42;;;;;;;1.97;1.80;;;3.50;99.90;;;;;;5018787;28;20441;-93
2020/12/05 09:43:08;;;;;;;4.17;2.90;;;3.40;99.90;;;;;;5018170;28;20436;-94
2020/12/05 09:45:36;;;;;;;5.37;4.20;;;3.50;99.90;;;;;;5018213;28;20444;-94
2020/12/05 09:48:03;;;;;;;6.50;5.37;;;3.40;99.90;;;;;;5020132;28;20430;-92
2020/12/05 09:50:30;;;;;;;4.93;3.90;;;3.50;99.90;;;;;;5017901;28;20481;-92
2020/12/05 09:52:57;;;;;;;6.10;4.50;;;3.50;99.90;;;;;;5019203;28;20503;-93
2020/12/05 09:55:23;;;;;;;9.03;4.90;;;3.50;99.90;;;;;;5016046;28;20442;-91
2020/12/05 09:57:50;;;;;;;12.50;5.17;;;3.40;99.90;;;;;;5018921;28;20446;-93
2020/12/05 10:00:16;;;;;;;9.00;5.20;;;3.40;99.90;;;;;;5018758;28;20438;-93
2020/12/05 10:02:43;;;;;;;9.20;5.43;;;3.40;99.90;;;;;;5017598;28;20468;-91
2020/12/05 10:05:11;;;;;;;6.73;5.80;;;3.20;99.90;;;;;;5025309;28;20441;-92
2020/12/05 10:07:38;;;;;;;11.10;6.80;;;3.20;99.90;;;;;;5026822;28;20450;-96
2020/12/05 10:10:05;;;;;;;9.07;6.83;;;3.20;99.90;;;;;;5017656;28;20446;-91
2020/12/05 10:12:32;;;;;;;9.53;6.30;;;3.20;99.90;;;;;;5016688;28;20500;-91
2020/12/05 10:14:59;;;;;;;8.10;6.67;;;3.20;99.90;;;;;;5014972;28;20448;-92
2020/12/05 10:17:26;;;;;;;11.23;7.47;;;3.10;99.90;;;;;;5016268;28;20445;-90
2020/12/05 10:19:53;;;;;;;9.40;7.20;;;3.20;99.90;;;;;;5016535;28;20453;-92
2020/12/05 10:22:19;;;;;;;7.23;6.17;;;3.20;99.90;;;;;;5017135;28;20449;-92
2020/12/05 10:24:46;;;;;;;13.20;6.87;;;3.20;99.90;;;;;;5015905;28;20475;-94
2020/12/05 10:27:12;;;;;;;8.50;7.50;;;3.30;99.90;;;;;;5016621;28;20433;-90
2020/12/05 10:29:38;;;;;;;8.70;6.60;;;3.30;99.90;;;;;;5017521;28;20460;-91
2020/12/05 10:32:05;;;;;;;11.50;7.17;;;3.30;99.90;;;;;;5011846;28;20500;-92
2020/12/05 10:34:31;;;;;;;13.73;8.07;;;3.30;99.90;;;;;;5016456;28;20897;-94
2020/12/05 10:36:58;;;;;;;20.50;8.60;;;3.30;99.90;;;;;;5016307;28;20453;-94
2020/12/05 10:39:25;;;;;;;18.17;8.30;;;3.30;99.90;;;;;;5017111;28;20429;-96
2020/12/05 10:41:51;;;;;;;15.53;9.00;;;3.30;99.90;;;;;;5017490;28;20450;-91
2020/12/05 10:44:18;;;;;;;16.27;10.87;;;3.20;99.90;;;;;;5018035;28;20459;-91
2020/12/05 10:46:47;;;;;;;14.60;11.20;;;3.20;99.90;;;;;;5029189;28;20458;-95
2020/12/05 10:49:14;;;;;;;26.63;23.03;;;3.10;99.90;;;;;;5020135;28;20457;-93
2020/12/05 10:51:40;;;;;;;23.17;11.73;;;3.10;99.90;;;;;;5018739;28;20550;-92
2020/12/05 10:54:08;;;;;;;14.77;10.67;;;3.00;99.90;;;;;;5017460;28;20448;-90
2020/12/05 10:56:37;;;;;;;11.60;10.07;;;3.00;99.90;;;;;;5017471;28;20459;-94
2020/12/05 10:59:03;;;;;;;52.00;38.67;;;3.00;99.90;;;;;;5019838;28;20806;-89
2020/12/05 11:01:30;;;;;;;37.40;26.97;;;3.00;99.90;;;;;;5018924;28;20452;-92
2020/12/05 11:03:56;;;;;;;22.23;12.90;;;2.90;99.90;;;;;;5014661;28;20475;-90
2020/12/05 11:06:24;;;;;;;13.03;10.10;;;2.90;99.90;;;;;;5016463;28;20452;-92
2020/12/05 11:08:51;;;;;;;17.13;11.97;;;2.90;99.90;;;;;;5010211;28;20440;-92
2020/12/05 11:11:18;;;;;;;18.03;12.60;;;3.00;99.90;;;;;;5016060;28;20495;-93
2020/12/05 11:13:45;;;;;;;14.77;12.17;;;3.00;99.90;;;;;;5016406;28;20453;-93
2020/12/05 11:16:11;;;;;;;25.10;11.90;;;3.00;99.90;;;;;;5017683;28;20453;-95
2020/12/05 11:18:38;;;;;;;30.53;19.43;;;3.00;99.90;;;;;;5017346;28;21058;-95
2020/12/05 11:21:05;;;;;;;24.40;18.73;;;3.00;99.90;;;;;;5014977;28;20448;-92
2020/12/05 11:23:31;;;;;;;20.20;16.13;;;3.10;99.90;;;;;;5015719;28;20477;-91
2020/12/05 11:25:58;;;;;;;19.60;15.70;;;3.10;99.90;;;;;;5013493;28;20441;-91
2020/12/05 11:28:25;;;;;;;20.13;14.87;;;3.10;99.90;;;;;;5015422;28;20452;-94
2020/12/05 11:30:52;;;;;;;19.93;16.43;;;3.10;99.90;;;;;;5015415;28;20496;-92
2020/12/05 11:33:18;;;;;;;17.80;15.27;;;3.20;99.90;;;;;;5015204;28;20465;-92
2020/12/05 11:35:44;;;;;;;20.17;14.97;;;3.10;99.90;;;;;;5014189;28;20781;-92
2020/12/05 11:38:11;;;;;;;16.50;14.13;;;3.20;99.90;;;;;;5014747;28;20451;-91
2020/12/05 11:40:37;;;;;;;15.50;13.43;;;3.20;99.90;;;;;;5015216;28;20465;-92
2020/12/05 11:43:03;;;;;;;14.40;12.90;;;3.20;99.90;;;;;;5015483;28;20465;-93
2020/12/05 11:45:30;;;;;;;15.53;13.67;;;3.30;99.90;;;;;;5014521;28;20441;-92
2020/12/05 11:47:57;;;;;;;14.57;10.87;;;3.20;99.90;;;;;;5015336;28;20788;-92
2020/12/05 11:50:23;;;;;;;20.30;11.87;;;3.30;99.90;;;;;;5014755;28;20438;-95
2020/12/05 11:52:49;;;;;;;12.20;10.07;;;3.30;99.90;;;;;;5015082;28;20491;-95
2020/12/05 11:55:15;;;;;;;10.97;9.07;;;3.40;99.90;;;;;;5015336;28;20446;-92
2020/12/05 11:57:42;;;;;;;12.27;9.30;;;3.40;99.90;;;;;;5012350;28;20453;-95
2020/12/05 12:00:08;;;;;;;13.80;9.17;;;3.30;99.90;;;;;;5013237;28;20447;-92
2020/12/05 12:02:36;;;;;;;12.90;9.60;;;3.50;99.90;;;;;;5014495;28;20972;-91
2020/12/05 12:05:02;;;;;;;13.07;9.17;;;3.40;99.90;;;;;;5013686;28;20441;-92
2020/12/05 12:07:31;;;;;;;14.33;9.80;;;3.50;99.90;;;;;;5014415;28;20448;-93
2020/12/05 12:09:57;;;;;;;10.97;9.60;;;3.50;99.90;;;;;;5014558;28;20484;-93
2020/12/05 12:12:23;;;;;;;14.83;9.87;;;3.50;99.90;;;;;;5014602;28;21012;-93
2020/12/05 12:14:50;;;;;;;11.50;8.83;;;3.60;99.90;;;;;;5022844;28;20460;-91
2020/12/05 12:17:16;;;;;;;11.10;9.50;;;3.50;99.90;;;;;;5023628;28;20437;-92
2020/12/05 12:19:43;;;;;;;11.83;9.37;;;3.60;99.90;;;;;;5014753;28;20456;-91
2020/12/05 12:22:09;;;;;;;15.43;9.17;;;3.60;99.90;;;;;;5016450;28;20449;-90
2020/12/05 12:24:36;;;;;;;12.37;9.77;;;3.60;99.90;;;;;;5020023;28;20485;-90
2020/12/05 12:27:02;;;;;;;12.53;9.80;;;3.50;99.90;;;;;;5014026;28;20446;-90
2020/12/05 12:29:29;;;;;;;14.10;9.23;;;3.50;99.90;;;;;;5014179;28;20800;-90
2020/12/05 12:31:55;;;;;;;11.77;10.30;;;3.50;99.90;;;;;;5014557;28;21033;-89
2020/12/05 12:34:21;;;;;;;12.57;10.20;;;3.50;99.90;;;;;;5016921;28;20448;-89
2020/12/05 12:36:50;;;;;;;15.77;10.87;;;3.50;99.90;;;;;;5017684;28;20453;-89
2020/12/05 12:39:16;;;;;;;11.60;10.03;;;3.40;99.90;;;;;;5017611;28;20447;-91
2020/12/05 12:41:42;;;;;;;12.10;10.00;;;3.40;99.90;;;;;;5017582;28;20467;-89
2020/12/05 12:44:09;;;;;;;16.03;10.63;;;3.40;99.90;;;;;;5017592;28;20473;-89
2020/12/05 12:46:43;;;;;;;15.17;11.23;;;3.40;99.90;;;;;;5018021;28;20465;-89
2020/12/05 12:49:10;;;;;;;11.43;10.00;;;3.50;99.90;;;;;;5017288;28;20452;-93
2020/12/05 12:51:36;;;;;;;13.23;9.50;;;3.40;99.90;;;;;;5027138;28;20495;-93
2020/12/05 12:54:03;;;;;;;15.57;10.70;;;3.40;99.90;;;;;;5030352;28;20450;-90